DWI6770 MDPC-SPJC
Flight info
| Callsign | DWI6770 |
|---|---|
| Flight time | 4h 59m |
| Altitude | 36000 |
| Route | POKAK2W POKAK DCT CRO DCT COR DCT AUC DCT SJE/N0455F380 DCT ROLUS DCT LODIN UP776 ILROL |
| Aircraft | B38M/M-SDE1FGHILORVWXY/HB1 |
Departure
| Time | 2026-04-28 22:59 |
|---|---|
| Airport | Punta Cana International Airport (MDPC) |
Arrival
| Time | 2026-04-29 03:59 |
|---|---|
| Airport | Jorge Chávez International Airport (SPJC) |
| Time | Latitude | Longitude | Altitude | Speed | Heading |
|---|---|---|---|---|---|
| 2026-04-28 22:48 | 18.56422 | -68.37217 | 53 ft | 0 kts | 175° |
| 2026-04-28 22:51 | 18.56437 | -68.37219 | 50 ft | 4 kts | 175° |
| 2026-04-28 22:51 | 18.56464 | -68.37221 | 47 ft | 4 kts | 176° |
| 2026-04-28 22:51 | 18.56482 | -68.37220 | 51 ft | 4 kts | 245° |
| 2026-04-28 22:51 | 18.56485 | -68.37201 | 53 ft | 4 kts | 265° |
| 2026-04-28 22:52 | 18.56486 | -68.37189 | 53 ft | 2 kts | 265° |
| 2026-04-28 22:55 | 18.56482 | -68.37228 | 53 ft | 12 kts | 264° |
| 2026-04-28 22:55 | 18.56471 | -68.37362 | 53 ft | 19 kts | 265° |
| 2026-04-28 22:55 | 18.56459 | -68.37508 | 51 ft | 20 kts | 265° |
| 2026-04-28 22:55 | 18.56448 | -68.37638 | 53 ft | 14 kts | 264° |
| 2026-04-28 22:56 | 18.56447 | -68.37736 | 53 ft | 13 kts | 281° |
| 2026-04-28 22:56 | 18.56517 | -68.37785 | 52 ft | 14 kts | 356° |
| 2026-04-28 22:56 | 18.56625 | -68.37794 | 52 ft | 18 kts | 356° |
| 2026-04-28 22:56 | 18.56708 | -68.37867 | 49 ft | 15 kts | 292° |
| 2026-04-28 22:57 | 18.56749 | -68.37965 | 50 ft | 14 kts | 294° |
| 2026-04-28 22:57 | 18.56789 | -68.38058 | 51 ft | 14 kts | 294° |
| 2026-04-28 22:57 | 18.56827 | -68.38145 | 50 ft | 13 kts | 294° |
| 2026-04-28 22:57 | 18.56866 | -68.38229 | 50 ft | 13 kts | 306° |
| 2026-04-28 22:58 | 18.56948 | -68.38268 | 54 ft | 13 kts | 344° |
| 2026-04-28 22:58 | 18.57036 | -68.38264 | 51 ft | 11 kts | 46° |
| 2026-04-28 22:58 | 18.57049 | -68.38230 | 54 ft | 0 kts | 72° |
| 2026-04-28 22:59 | 18.57078 | -68.38122 | 54 ft | 49 kts | 73° |
| 2026-04-28 22:59 | 18.57248 | -68.37509 | 52 ft | 123 kts | 74° |
| 2026-04-28 22:59 | 18.57553 | -68.36434 | 90 ft | 178 kts | 72° |
| 2026-04-28 22:59 | 18.57919 | -68.35102 | 666 ft | 196 kts | 73° |
| 2026-04-28 23:00 | 18.58299 | -68.33647 | 1444 ft | 215 kts | 73° |
| 2026-04-28 23:00 | 18.58717 | -68.32061 | 2186 ft | 230 kts | 76° |
| 2026-04-28 23:00 | 18.58788 | -68.30333 | 2889 ft | 247 kts | 102° |
| 2026-04-28 23:00 | 18.57932 | -68.28737 | 3460 ft | 265 kts | 139° |
| 2026-04-28 23:01 | 18.56287 | -68.27798 | 4500 ft | 261 kts | 155° |
| 2026-04-28 23:01 | 18.54703 | -68.26942 | 5550 ft | 262 kts | 146° |
| 2026-04-28 23:01 | 18.53167 | -68.25853 | 6339 ft | 271 kts | 149° |
| 2026-04-28 23:01 | 18.51360 | -68.25186 | 6978 ft | 284 kts | 174° |
| 2026-04-28 23:02 | 18.49348 | -68.25295 | 7643 ft | 292 kts | 190° |
| 2026-04-28 23:02 | 18.47359 | -68.25628 | 8702 ft | 287 kts | 188° |
| 2026-04-28 23:02 | 18.45374 | -68.25919 | 9544 ft | 292 kts | 188° |
| 2026-04-28 23:02 | 18.43344 | -68.26201 | 10308 ft | 296 kts | 188° |
| 2026-04-28 23:03 | 18.41262 | -68.26479 | 10854 ft | 309 kts | 188° |
| 2026-04-28 23:03 | 18.39062 | -68.26765 | 11247 ft | 326 kts | 188° |
| 2026-04-28 23:03 | 18.36769 | -68.27059 | 11719 ft | 337 kts | 188° |
| 2026-04-28 23:03 | 18.34441 | -68.27355 | 12485 ft | 337 kts | 188° |
| 2026-04-28 23:04 | 18.32091 | -68.27653 | 13187 ft | 342 kts | 188° |
| 2026-04-28 23:04 | 18.27322 | -68.28257 | 14459 ft | 348 kts | 188° |
| 2026-04-28 23:04 | 18.24941 | -68.28558 | 15040 ft | 351 kts | 188° |
| 2026-04-28 23:05 | 18.22503 | -68.28867 | 15634 ft | 354 kts | 188° |
| 2026-04-28 23:05 | 18.20052 | -68.29177 | 16201 ft | 357 kts | 188° |
| 2026-04-28 23:05 | 18.17569 | -68.29491 | 16763 ft | 360 kts | 188° |
| 2026-04-28 23:05 | 18.15069 | -68.29807 | 17323 ft | 363 kts | 188° |
| 2026-04-28 23:06 | 18.12555 | -68.30124 | 17862 ft | 365 kts | 188° |
| 2026-04-28 23:06 | 18.10013 | -68.30445 | 18378 ft | 368 kts | 188° |
| 2026-04-28 23:06 | 18.07458 | -68.30768 | 18822 ft | 371 kts | 188° |
| 2026-04-28 23:06 | 18.04891 | -68.31093 | 19292 ft | 372 kts | 189° |
| 2026-04-28 23:07 | 18.02317 | -68.31418 | 19745 ft | 374 kts | 189° |
| 2026-04-28 23:07 | 17.99726 | -68.31745 | 20199 ft | 376 kts | 189° |
| 2026-04-28 23:07 | 17.97156 | -68.32069 | 20648 ft | 377 kts | 189° |
| 2026-04-28 23:07 | 17.94541 | -68.32398 | 21098 ft | 379 kts | 189° |
| 2026-04-28 23:08 | 17.91911 | -68.32730 | 21552 ft | 381 kts | 190° |
| 2026-04-28 23:08 | 17.89263 | -68.33063 | 21989 ft | 383 kts | 190° |
| 2026-04-28 23:08 | 17.86607 | -68.33398 | 22403 ft | 386 kts | 190° |
| 2026-04-28 23:08 | 17.83934 | -68.33735 | 22840 ft | 388 kts | 190° |
| 2026-04-28 23:09 | 17.81247 | -68.34073 | 23270 ft | 390 kts | 190° |
| 2026-04-28 23:09 | 17.78538 | -68.34414 | 23682 ft | 392 kts | 190° |
| 2026-04-28 23:09 | 17.75831 | -68.34755 | 24017 ft | 395 kts | 190° |
| 2026-04-28 23:09 | 17.73125 | -68.35095 | 24374 ft | 396 kts | 190° |
| 2026-04-28 23:10 | 17.70379 | -68.35440 | 24731 ft | 398 kts | 190° |
| 2026-04-28 23:10 | 17.67622 | -68.35787 | 25072 ft | 400 kts | 190° |
| 2026-04-28 23:10 | 17.64842 | -68.36136 | 25424 ft | 402 kts | 190° |
| 2026-04-28 23:10 | 17.62055 | -68.36487 | 25782 ft | 404 kts | 191° |
| 2026-04-28 23:11 | 17.59254 | -68.36838 | 26117 ft | 406 kts | 191° |
| 2026-04-28 23:11 | 17.56443 | -68.37191 | 26451 ft | 408 kts | 191° |
| 2026-04-28 23:11 | 17.53611 | -68.37547 | 26789 ft | 410 kts | 191° |
| 2026-04-28 23:11 | 17.50797 | -68.37900 | 27119 ft | 412 kts | 191° |
| 2026-04-28 23:12 | 17.47948 | -68.38257 | 27448 ft | 413 kts | 191° |
| 2026-04-28 23:12 | 17.45078 | -68.38617 | 27778 ft | 415 kts | 191° |
| 2026-04-28 23:12 | 17.42201 | -68.38978 | 28090 ft | 417 kts | 191° |
| 2026-04-28 23:12 | 17.39307 | -68.39341 | 28401 ft | 419 kts | 191° |
| 2026-04-28 23:13 | 17.36413 | -68.39703 | 28706 ft | 420 kts | 191° |
| 2026-04-28 23:13 | 17.33496 | -68.40069 | 29014 ft | 422 kts | 191° |
| 2026-04-28 23:13 | 17.30570 | -68.40435 | 29312 ft | 424 kts | 191° |
| 2026-04-28 23:13 | 17.27627 | -68.40803 | 29607 ft | 426 kts | 191° |
| 2026-04-28 23:14 | 17.24720 | -68.41167 | 29881 ft | 427 kts | 191° |
| 2026-04-28 23:14 | 17.21763 | -68.41537 | 30153 ft | 429 kts | 191° |
| 2026-04-28 23:14 | 17.18789 | -68.41909 | 30400 ft | 430 kts | 191° |
| 2026-04-28 23:14 | 17.15809 | -68.42281 | 30638 ft | 432 kts | 191° |
| 2026-04-28 23:15 | 17.12807 | -68.42656 | 30873 ft | 433 kts | 192° |
| 2026-04-28 23:15 | 17.09808 | -68.43031 | 31107 ft | 435 kts | 191° |
| 2026-04-28 23:15 | 17.06804 | -68.43406 | 31341 ft | 436 kts | 191° |
| 2026-04-28 23:15 | 17.03778 | -68.43783 | 31571 ft | 437 kts | 191° |
| 2026-04-28 23:16 | 17.00758 | -68.44160 | 31801 ft | 439 kts | 191° |
| 2026-04-28 23:16 | 16.97717 | -68.44540 | 32034 ft | 440 kts | 191° |
| 2026-04-28 23:16 | 16.94673 | -68.44920 | 32267 ft | 441 kts | 191° |
| 2026-04-28 23:16 | 16.91618 | -68.45300 | 32476 ft | 443 kts | 191° |
| 2026-04-28 23:17 | 16.88549 | -68.45683 | 32704 ft | 444 kts | 191° |
| 2026-04-28 23:17 | 16.85473 | -68.46066 | 32980 ft | 444 kts | 191° |
| 2026-04-28 23:17 | 16.82443 | -68.46443 | 33299 ft | 443 kts | 191° |
| 2026-04-28 23:17 | 16.79377 | -68.46825 | 33599 ft | 442 kts | 191° |
| 2026-04-28 23:18 | 16.76327 | -68.47205 | 33912 ft | 441 kts | 191° |
| 2026-04-28 23:18 | 16.73280 | -68.47584 | 34183 ft | 441 kts | 191° |
| 2026-04-28 23:18 | 16.70233 | -68.47963 | 34432 ft | 440 kts | 191° |
| 2026-04-28 23:18 | 16.67185 | -68.48343 | 34666 ft | 440 kts | 192° |
| 2026-04-28 23:19 | 16.64151 | -68.48720 | 34890 ft | 440 kts | 192° |
| 2026-04-28 23:19 | 16.61111 | -68.49097 | 35108 ft | 440 kts | 192° |
| 2026-04-28 23:19 | 16.58071 | -68.49475 | 35316 ft | 440 kts | 192° |
| 2026-04-28 23:19 | 16.55031 | -68.49853 | 35531 ft | 440 kts | 192° |
| 2026-04-28 23:20 | 16.51979 | -68.50232 | 35734 ft | 440 kts | 192° |
| 2026-04-28 23:20 | 16.48979 | -68.50604 | 35944 ft | 440 kts | 192° |
| 2026-04-28 23:20 | 16.42878 | -68.51361 | 35993 ft | 438 kts | 192° |
| 2026-04-28 23:21 | 16.36856 | -68.52107 | 35994 ft | 438 kts | 192° |
| 2026-04-28 23:21 | 16.30801 | -68.52858 | 35999 ft | 438 kts | 192° |
| 2026-04-28 23:22 | 16.24738 | -68.53608 | 35996 ft | 438 kts | 192° |
| 2026-04-28 23:22 | 16.18678 | -68.54358 | 35996 ft | 439 kts | 192° |
| 2026-04-28 23:23 | 16.12621 | -68.55107 | 35990 ft | 439 kts | 192° |
| 2026-04-28 23:23 | 16.06545 | -68.55858 | 35987 ft | 439 kts | 192° |
| 2026-04-28 23:24 | 16.00486 | -68.56624 | 35985 ft | 437 kts | 195° |
| 2026-04-28 23:24 | 15.94590 | -68.58031 | 35987 ft | 434 kts | 198° |
| 2026-04-28 23:25 | 15.88741 | -68.59491 | 35995 ft | 434 kts | 198° |
| 2026-04-28 23:25 | 15.82860 | -68.60964 | 35993 ft | 434 kts | 198° |
| 2026-04-28 23:26 | 15.76983 | -68.62435 | 35992 ft | 434 kts | 198° |
| 2026-04-28 23:26 | 15.71105 | -68.63906 | 35992 ft | 435 kts | 198° |
| 2026-04-28 23:27 | 15.65215 | -68.65380 | 35987 ft | 435 kts | 198° |
| 2026-04-28 23:27 | 15.59325 | -68.66852 | 35987 ft | 435 kts | 198° |
| 2026-04-28 23:28 | 15.53477 | -68.68313 | 35988 ft | 435 kts | 198° |
| 2026-04-28 23:28 | 15.48576 | -68.69536 | 35983 ft | 435 kts | 198° |
| 2026-04-28 23:29 | 15.42677 | -68.71009 | 35979 ft | 435 kts | 198° |
| 2026-04-28 23:29 | 15.36795 | -68.72475 | 35987 ft | 435 kts | 198° |
| 2026-04-28 23:30 | 15.30903 | -68.73944 | 35986 ft | 435 kts | 198° |
| 2026-04-28 23:30 | 15.25008 | -68.75413 | 35983 ft | 436 kts | 198° |
| 2026-04-28 23:31 | 15.19103 | -68.76883 | 35978 ft | 436 kts | 198° |
| 2026-04-28 23:31 | 15.13239 | -68.78342 | 35983 ft | 436 kts | 198° |
| 2026-04-28 23:32 | 15.07329 | -68.79812 | 35984 ft | 436 kts | 198° |
| 2026-04-28 23:32 | 15.01422 | -68.81280 | 35981 ft | 436 kts | 198° |
| 2026-04-28 23:33 | 14.95506 | -68.82749 | 35980 ft | 437 kts | 198° |
| 2026-04-28 23:33 | 14.89596 | -68.84216 | 35981 ft | 437 kts | 198° |
| 2026-04-28 23:34 | 14.83666 | -68.85688 | 35976 ft | 438 kts | 198° |
| 2026-04-28 23:34 | 14.77767 | -68.87151 | 35979 ft | 438 kts | 198° |
| 2026-04-28 23:35 | 14.71825 | -68.88623 | 35976 ft | 439 kts | 198° |
| 2026-04-28 23:35 | 14.65884 | -68.90095 | 35975 ft | 439 kts | 198° |
| 2026-04-28 23:36 | 14.59933 | -68.91568 | 35975 ft | 439 kts | 198° |
| 2026-04-28 23:36 | 14.54020 | -68.93032 | 35974 ft | 440 kts | 198° |
| 2026-04-28 23:37 | 14.48062 | -68.94505 | 35972 ft | 440 kts | 198° |
| 2026-04-28 23:37 | 14.42099 | -68.95978 | 35970 ft | 441 kts | 198° |
| 2026-04-28 23:38 | 14.36134 | -68.97452 | 35972 ft | 441 kts | 198° |
| 2026-04-28 23:38 | 14.30160 | -68.98927 | 35968 ft | 441 kts | 198° |
| 2026-04-28 23:39 | 14.24170 | -69.00405 | 35969 ft | 442 kts | 198° |
| 2026-04-28 23:39 | 14.18184 | -69.01881 | 35965 ft | 442 kts | 198° |
| 2026-04-28 23:40 | 14.12245 | -69.03345 | 35964 ft | 442 kts | 198° |
| 2026-04-28 23:40 | 14.06253 | -69.04821 | 35966 ft | 442 kts | 198° |
| 2026-04-28 23:41 | 14.00266 | -69.06295 | 35964 ft | 442 kts | 198° |
| 2026-04-28 23:41 | 13.94272 | -69.07770 | 35964 ft | 443 kts | 198° |
| 2026-04-28 23:42 | 13.88262 | -69.09248 | 35963 ft | 444 kts | 198° |
| 2026-04-28 23:42 | 13.82256 | -69.10724 | 35962 ft | 444 kts | 198° |
| 2026-04-28 23:43 | 13.76281 | -69.12193 | 35961 ft | 444 kts | 198° |
| 2026-04-28 23:43 | 13.70262 | -69.13671 | 35962 ft | 445 kts | 198° |
| 2026-04-28 23:44 | 13.64238 | -69.15149 | 35960 ft | 445 kts | 198° |
| 2026-04-28 23:44 | 13.58214 | -69.16627 | 35959 ft | 445 kts | 198° |
| 2026-04-28 23:45 | 13.52180 | -69.18106 | 35958 ft | 445 kts | 198° |
| 2026-04-28 23:45 | 13.46159 | -69.19582 | 35955 ft | 445 kts | 198° |
| 2026-04-28 23:46 | 13.40160 | -69.21051 | 35956 ft | 445 kts | 198° |
| 2026-04-28 23:46 | 13.34134 | -69.22526 | 35951 ft | 446 kts | 198° |
| 2026-04-28 23:47 | 13.28085 | -69.24006 | 35950 ft | 446 kts | 198° |
| 2026-04-28 23:47 | 13.22054 | -69.25481 | 35951 ft | 446 kts | 198° |
| 2026-04-28 23:48 | 13.16019 | -69.26956 | 35949 ft | 446 kts | 198° |
| 2026-04-28 23:48 | 13.09973 | -69.28433 | 35949 ft | 446 kts | 198° |
| 2026-04-28 23:49 | 13.03940 | -69.29906 | 35950 ft | 446 kts | 198° |
| 2026-04-28 23:49 | 12.97887 | -69.31383 | 35944 ft | 446 kts | 198° |
| 2026-04-28 23:50 | 12.91883 | -69.32848 | 35938 ft | 447 kts | 198° |
| 2026-04-28 23:50 | 12.85834 | -69.34322 | 35934 ft | 447 kts | 198° |
| 2026-04-28 23:51 | 12.79784 | -69.35796 | 35924 ft | 447 kts | 198° |
| 2026-04-28 23:51 | 12.73717 | -69.37274 | 35922 ft | 447 kts | 198° |
| 2026-04-28 23:52 | 12.67704 | -69.38739 | 35917 ft | 447 kts | 198° |
| 2026-04-28 23:52 | 12.61659 | -69.40209 | 35919 ft | 447 kts | 198° |
| 2026-04-28 23:53 | 12.55607 | -69.41681 | 35915 ft | 447 kts | 198° |
| 2026-04-28 23:53 | 12.49559 | -69.43151 | 35911 ft | 447 kts | 198° |
| 2026-04-28 23:54 | 12.43511 | -69.44621 | 35908 ft | 447 kts | 198° |
| 2026-04-28 23:54 | 12.37472 | -69.46087 | 35908 ft | 447 kts | 198° |
| 2026-04-28 23:55 | 12.31420 | -69.47556 | 35912 ft | 447 kts | 198° |
| 2026-04-28 23:55 | 12.25368 | -69.49025 | 35911 ft | 447 kts | 198° |
| 2026-04-28 23:56 | 12.19313 | -69.50494 | 35917 ft | 447 kts | 197° |
| 2026-04-28 23:56 | 12.13246 | -69.51964 | 35920 ft | 447 kts | 197° |
| 2026-04-28 23:57 | 12.07195 | -69.53430 | 35927 ft | 447 kts | 197° |
| 2026-04-28 23:57 | 12.01141 | -69.54896 | 35931 ft | 447 kts | 197° |
| 2026-04-28 23:58 | 11.95091 | -69.56361 | 35932 ft | 447 kts | 197° |
| 2026-04-28 23:58 | 11.89027 | -69.57828 | 35932 ft | 447 kts | 197° |
| 2026-04-28 23:59 | 11.83000 | -69.59285 | 35933 ft | 447 kts | 197° |
| 2026-04-28 23:59 | 11.76942 | -69.60750 | 35930 ft | 447 kts | 197° |
| 2026-04-29 00:00 | 11.70875 | -69.62216 | 35929 ft | 447 kts | 197° |
| 2026-04-29 00:00 | 11.64816 | -69.63679 | 35924 ft | 447 kts | 197° |
| 2026-04-29 00:01 | 11.58753 | -69.65143 | 35930 ft | 447 kts | 197° |
| 2026-04-29 00:01 | 11.52726 | -69.66598 | 35935 ft | 447 kts | 197° |
| 2026-04-29 00:02 | 11.46655 | -69.68062 | 35934 ft | 448 kts | 196° |
| 2026-04-29 00:02 | 11.40622 | -69.69595 | 35933 ft | 446 kts | 200° |
| 2026-04-29 00:03 | 11.34683 | -69.71439 | 35935 ft | 447 kts | 199° |
| 2026-04-29 00:03 | 11.28707 | -69.73252 | 35935 ft | 447 kts | 199° |
| 2026-04-29 00:04 | 11.22730 | -69.75059 | 35935 ft | 448 kts | 199° |
| 2026-04-29 00:04 | 11.16795 | -69.76853 | 35939 ft | 448 kts | 199° |
| 2026-04-29 00:05 | 11.10825 | -69.78656 | 35941 ft | 448 kts | 199° |
| 2026-04-29 00:05 | 11.04851 | -69.80460 | 35940 ft | 448 kts | 199° |
| 2026-04-29 00:06 | 10.98875 | -69.82264 | 35941 ft | 447 kts | 199° |
| 2026-04-29 00:06 | 10.92899 | -69.84066 | 35940 ft | 448 kts | 199° |
| 2026-04-29 00:07 | 10.86918 | -69.85869 | 35941 ft | 448 kts | 199° |
| 2026-04-29 00:07 | 10.80968 | -69.87663 | 35941 ft | 448 kts | 199° |
| 2026-04-29 00:08 | 10.74983 | -69.89467 | 35944 ft | 448 kts | 199° |
| 2026-04-29 00:08 | 10.68989 | -69.91272 | 35947 ft | 449 kts | 199° |
| 2026-04-29 00:09 | 10.63003 | -69.93074 | 35947 ft | 449 kts | 199° |
| 2026-04-29 00:09 | 10.57002 | -69.94880 | 35941 ft | 449 kts | 199° |
| 2026-04-29 00:10 | 10.51060 | -69.96667 | 35942 ft | 448 kts | 199° |
| 2026-04-29 00:10 | 10.45083 | -69.98465 | 35939 ft | 448 kts | 199° |
| 2026-04-29 00:11 | 10.39101 | -70.00263 | 35936 ft | 448 kts | 199° |
| 2026-04-29 00:12 | 10.30126 | -70.02959 | 35931 ft | 447 kts | 199° |
| 2026-04-29 00:12 | 10.24159 | -70.04751 | 35928 ft | 447 kts | 199° |
| 2026-04-29 00:13 | 10.18230 | -70.06521 | 35926 ft | 447 kts | 197° |
| 2026-04-29 00:13 | 10.12069 | -70.07798 | 35930 ft | 449 kts | 195° |
| 2026-04-29 00:14 | 10.06009 | -70.09092 | 35935 ft | 448 kts | 195° |
| 2026-04-29 00:14 | 9.99899 | -70.10411 | 35945 ft | 448 kts | 195° |
| 2026-04-29 00:15 | 9.93799 | -70.11730 | 35947 ft | 448 kts | 195° |
| 2026-04-29 00:15 | 9.87709 | -70.13046 | 35961 ft | 447 kts | 195° |
| 2026-04-29 00:16 | 9.81618 | -70.14362 | 35959 ft | 447 kts | 195° |
| 2026-04-29 00:16 | 9.75522 | -70.15678 | 35964 ft | 447 kts | 195° |
| 2026-04-29 00:17 | 9.69477 | -70.16983 | 35988 ft | 447 kts | 195° |
| 2026-04-29 00:17 | 9.63386 | -70.18297 | 36001 ft | 447 kts | 195° |
| 2026-04-29 00:18 | 9.57309 | -70.19608 | 36005 ft | 447 kts | 195° |
| 2026-04-29 00:18 | 9.51208 | -70.20923 | 36002 ft | 448 kts | 195° |
| 2026-04-29 00:19 | 9.46139 | -70.22016 | 36011 ft | 447 kts | 195° |
| 2026-04-29 00:19 | 9.40050 | -70.23328 | 36015 ft | 448 kts | 195° |
| 2026-04-29 00:20 | 9.33956 | -70.24640 | 36019 ft | 447 kts | 195° |
| 2026-04-29 00:20 | 9.27858 | -70.25954 | 36022 ft | 448 kts | 194° |
| 2026-04-29 00:21 | 9.21741 | -70.27270 | 36026 ft | 449 kts | 194° |
| 2026-04-29 00:21 | 9.15622 | -70.28587 | 36021 ft | 449 kts | 194° |
| 2026-04-29 00:22 | 9.09548 | -70.29893 | 35996 ft | 448 kts | 194° |
| 2026-04-29 00:22 | 9.03434 | -70.31208 | 36025 ft | 449 kts | 194° |
| 2026-04-29 00:23 | 8.97317 | -70.32523 | 36019 ft | 449 kts | 194° |
| 2026-04-29 00:23 | 8.91203 | -70.33837 | 36009 ft | 449 kts | 194° |
| 2026-04-29 00:24 | 8.85090 | -70.35149 | 36008 ft | 450 kts | 194° |
| 2026-04-29 00:24 | 8.78968 | -70.36464 | 35986 ft | 449 kts | 194° |
| 2026-04-29 00:25 | 8.72862 | -70.37775 | 35976 ft | 449 kts | 194° |
| 2026-04-29 00:25 | 8.66784 | -70.39079 | 35967 ft | 448 kts | 194° |
| 2026-04-29 00:26 | 8.60678 | -70.40388 | 35956 ft | 448 kts | 194° |
| 2026-04-29 00:26 | 8.54561 | -70.41700 | 35952 ft | 448 kts | 194° |
| 2026-04-29 00:27 | 8.48457 | -70.43009 | 35940 ft | 448 kts | 194° |
| 2026-04-29 00:27 | 8.42357 | -70.44316 | 35936 ft | 448 kts | 194° |
| 2026-04-29 00:28 | 8.36288 | -70.45616 | 35932 ft | 448 kts | 194° |
| 2026-04-29 00:28 | 8.30191 | -70.46922 | 35928 ft | 448 kts | 194° |
| 2026-04-29 00:29 | 8.24091 | -70.48228 | 35926 ft | 448 kts | 194° |
| 2026-04-29 00:29 | 8.17975 | -70.49537 | 35922 ft | 448 kts | 194° |
| 2026-04-29 00:30 | 8.11870 | -70.50843 | 35922 ft | 449 kts | 194° |
| 2026-04-29 00:30 | 8.05760 | -70.52150 | 35917 ft | 449 kts | 194° |
| 2026-04-29 00:31 | 7.99650 | -70.53456 | 35921 ft | 449 kts | 194° |
| 2026-04-29 00:31 | 7.93537 | -70.54763 | 35921 ft | 449 kts | 194° |
| 2026-04-29 00:32 | 7.87436 | -70.56066 | 35917 ft | 449 kts | 194° |
| 2026-04-29 00:32 | 7.81305 | -70.57376 | 35917 ft | 449 kts | 194° |
| 2026-04-29 00:33 | 7.75213 | -70.58677 | 35916 ft | 450 kts | 194° |
| 2026-04-29 00:33 | 7.69084 | -70.59986 | 35916 ft | 450 kts | 194° |
| 2026-04-29 00:34 | 7.62959 | -70.61293 | 35918 ft | 450 kts | 194° |
| 2026-04-29 00:34 | 7.56821 | -70.62603 | 35918 ft | 450 kts | 194° |
| 2026-04-29 00:35 | 7.50691 | -70.63910 | 35919 ft | 450 kts | 194° |
| 2026-04-29 00:35 | 7.44550 | -70.65220 | 35921 ft | 451 kts | 194° |
| 2026-04-29 00:36 | 7.38412 | -70.66528 | 35919 ft | 452 kts | 194° |
| 2026-04-29 00:36 | 7.32254 | -70.67841 | 35916 ft | 452 kts | 194° |
| 2026-04-29 00:37 | 7.26133 | -70.69145 | 35915 ft | 452 kts | 194° |
| 2026-04-29 00:37 | 7.19952 | -70.70462 | 35915 ft | 453 kts | 194° |
| 2026-04-29 00:38 | 7.13791 | -70.71774 | 35913 ft | 453 kts | 194° |
| 2026-04-29 00:38 | 7.07652 | -70.73088 | 35911 ft | 453 kts | 196° |
| 2026-04-29 00:39 | 7.01825 | -70.75374 | 35902 ft | 450 kts | 205° |
| 2026-04-29 00:39 | 6.96030 | -70.77812 | 35913 ft | 450 kts | 205° |
| 2026-04-29 00:40 | 6.90260 | -70.80256 | 35915 ft | 451 kts | 205° |
| 2026-04-29 00:40 | 6.84465 | -70.82712 | 35919 ft | 451 kts | 205° |
| 2026-04-29 00:41 | 6.78686 | -70.85159 | 35922 ft | 451 kts | 205° |
| 2026-04-29 00:41 | 6.72901 | -70.87609 | 35924 ft | 451 kts | 205° |
| 2026-04-29 00:42 | 6.67150 | -70.90043 | 35927 ft | 451 kts | 205° |
| 2026-04-29 00:42 | 6.61355 | -70.92496 | 35926 ft | 451 kts | 205° |
| 2026-04-29 00:43 | 6.55564 | -70.94946 | 35929 ft | 451 kts | 205° |
| 2026-04-29 00:43 | 6.49777 | -70.97394 | 35925 ft | 451 kts | 205° |
| 2026-04-29 00:44 | 6.44011 | -70.99833 | 35926 ft | 451 kts | 204° |
| 2026-04-29 00:44 | 6.38225 | -71.02279 | 35925 ft | 451 kts | 204° |
| 2026-04-29 00:45 | 6.32432 | -71.04728 | 35926 ft | 451 kts | 204° |
| 2026-04-29 00:45 | 6.26632 | -71.07178 | 35926 ft | 452 kts | 204° |
| 2026-04-29 00:46 | 6.20867 | -71.09614 | 35930 ft | 452 kts | 204° |
| 2026-04-29 00:46 | 6.15067 | -71.12064 | 35926 ft | 452 kts | 204° |
| 2026-04-29 00:47 | 6.09254 | -71.14519 | 35927 ft | 452 kts | 204° |
| 2026-04-29 00:47 | 6.03499 | -71.16949 | 35928 ft | 452 kts | 204° |
| 2026-04-29 00:48 | 5.97658 | -71.19415 | 35926 ft | 452 kts | 204° |
| 2026-04-29 00:48 | 5.91852 | -71.21865 | 35930 ft | 452 kts | 204° |
| 2026-04-29 00:49 | 5.86041 | -71.24317 | 35931 ft | 453 kts | 204° |
| 2026-04-29 00:49 | 5.80268 | -71.26752 | 35931 ft | 453 kts | 204° |
| 2026-04-29 00:50 | 5.74459 | -71.29201 | 35927 ft | 453 kts | 204° |
| 2026-04-29 00:50 | 5.68623 | -71.31661 | 35928 ft | 453 kts | 204° |
| 2026-04-29 00:51 | 5.62813 | -71.34111 | 35933 ft | 453 kts | 204° |
| 2026-04-29 00:51 | 5.56986 | -71.36567 | 35930 ft | 453 kts | 204° |
| 2026-04-29 00:52 | 5.51197 | -71.39005 | 35931 ft | 453 kts | 203° |
| 2026-04-29 00:52 | 5.45376 | -71.41458 | 35931 ft | 453 kts | 203° |
| 2026-04-29 00:53 | 5.39548 | -71.43913 | 35927 ft | 453 kts | 203° |
| 2026-04-29 00:53 | 5.33729 | -71.46363 | 35924 ft | 453 kts | 203° |
| 2026-04-29 00:54 | 5.27898 | -71.48818 | 35923 ft | 454 kts | 203° |
| 2026-04-29 00:54 | 5.22112 | -71.51253 | 35921 ft | 453 kts | 203° |
| 2026-04-29 00:55 | 5.16280 | -71.53707 | 35921 ft | 454 kts | 203° |
| 2026-04-29 00:55 | 5.10451 | -71.56160 | 35919 ft | 454 kts | 203° |
| 2026-04-29 00:56 | 5.04637 | -71.58606 | 35917 ft | 453 kts | 203° |
| 2026-04-29 00:56 | 4.98853 | -71.61038 | 35913 ft | 454 kts | 203° |
| 2026-04-29 00:57 | 4.93029 | -71.63487 | 35909 ft | 453 kts | 203° |
| 2026-04-29 00:57 | 4.87196 | -71.65940 | 35912 ft | 453 kts | 203° |
| 2026-04-29 00:58 | 4.81383 | -71.68383 | 35910 ft | 453 kts | 204° |
| 2026-04-29 00:58 | 4.75564 | -71.70828 | 35909 ft | 453 kts | 203° |
| 2026-04-29 00:59 | 4.69745 | -71.73273 | 35906 ft | 453 kts | 203° |
| 2026-04-29 00:59 | 4.63960 | -71.75703 | 35905 ft | 453 kts | 203° |
| 2026-04-29 01:00 | 4.58133 | -71.78151 | 35907 ft | 453 kts | 203° |
| 2026-04-29 01:00 | 4.52323 | -71.80590 | 35905 ft | 453 kts | 203° |
| 2026-04-29 01:01 | 4.46513 | -71.83030 | 35903 ft | 452 kts | 203° |
| 2026-04-29 01:01 | 4.40747 | -71.85451 | 35906 ft | 452 kts | 203° |
| 2026-04-29 01:02 | 4.34934 | -71.87891 | 35905 ft | 453 kts | 203° |
| 2026-04-29 01:02 | 4.29121 | -71.90330 | 35903 ft | 453 kts | 203° |
| 2026-04-29 01:03 | 4.23301 | -71.92772 | 35905 ft | 453 kts | 203° |
| 2026-04-29 01:03 | 4.17480 | -71.95215 | 35905 ft | 453 kts | 203° |
| 2026-04-29 01:04 | 4.11705 | -71.97637 | 35906 ft | 453 kts | 203° |
| 2026-04-29 01:04 | 4.05885 | -72.00078 | 35906 ft | 453 kts | 203° |
| 2026-04-29 01:05 | 4.01035 | -72.02111 | 35907 ft | 453 kts | 203° |
| 2026-04-29 01:05 | 3.95211 | -72.04554 | 35907 ft | 454 kts | 203° |
| 2026-04-29 01:06 | 3.89382 | -72.06997 | 35899 ft | 454 kts | 202° |
| 2026-04-29 01:06 | 3.83552 | -72.09441 | 35899 ft | 454 kts | 202° |
| 2026-04-29 01:07 | 3.77713 | -72.11887 | 35903 ft | 455 kts | 202° |
| 2026-04-29 01:07 | 3.71864 | -72.14338 | 35902 ft | 455 kts | 202° |
| 2026-04-29 01:08 | 3.66018 | -72.16787 | 35904 ft | 456 kts | 202° |
| 2026-04-29 01:08 | 3.60205 | -72.19223 | 35903 ft | 456 kts | 202° |
| 2026-04-29 01:09 | 3.54354 | -72.21673 | 35899 ft | 456 kts | 202° |
| 2026-04-29 01:09 | 3.48490 | -72.24129 | 35902 ft | 457 kts | 202° |
| 2026-04-29 01:10 | 3.42614 | -72.26590 | 35902 ft | 458 kts | 202° |
| 2026-04-29 01:10 | 3.36739 | -72.29049 | 35907 ft | 459 kts | 202° |
| 2026-04-29 01:11 | 3.30834 | -72.31521 | 35907 ft | 460 kts | 202° |
| 2026-04-29 01:11 | 3.24927 | -72.33994 | 35905 ft | 461 kts | 202° |
| 2026-04-29 01:12 | 3.19033 | -72.36461 | 35908 ft | 461 kts | 202° |
| 2026-04-29 01:12 | 3.13115 | -72.38937 | 35912 ft | 461 kts | 202° |
| 2026-04-29 01:13 | 3.07197 | -72.41413 | 35912 ft | 461 kts | 202° |
| 2026-04-29 01:13 | 3.01273 | -72.43892 | 35907 ft | 461 kts | 202° |
| 2026-04-29 01:14 | 2.95398 | -72.46349 | 35909 ft | 460 kts | 202° |
| 2026-04-29 01:14 | 2.89483 | -72.48823 | 35909 ft | 461 kts | 202° |
| 2026-04-29 01:15 | 2.83563 | -72.51299 | 35915 ft | 461 kts | 202° |
| 2026-04-29 01:15 | 2.77643 | -72.53775 | 35917 ft | 461 kts | 202° |
| 2026-04-29 01:16 | 2.71725 | -72.56249 | 35916 ft | 461 kts | 202° |
| 2026-04-29 01:16 | 2.65836 | -72.58711 | 35912 ft | 461 kts | 202° |
| 2026-04-29 01:17 | 2.59912 | -72.61188 | 35919 ft | 461 kts | 202° |
| 2026-04-29 01:17 | 2.53990 | -72.63655 | 35919 ft | 461 kts | 200° |
| 2026-04-29 01:18 | 2.47851 | -72.65420 | 35921 ft | 460 kts | 194° |
| 2026-04-29 01:18 | 2.38573 | -72.67931 | 35918 ft | 460 kts | 194° |
| 2026-04-29 01:19 | 2.32426 | -72.69589 | 35924 ft | 460 kts | 194° |
| 2026-04-29 01:19 | 2.26234 | -72.71259 | 35926 ft | 460 kts | 194° |
| 2026-04-29 01:20 | 2.20047 | -72.72927 | 35928 ft | 461 kts | 194° |
| 2026-04-29 01:20 | 2.13853 | -72.74597 | 35931 ft | 461 kts | 194° |
| 2026-04-29 01:21 | 2.07655 | -72.76269 | 35933 ft | 461 kts | 194° |
| 2026-04-29 01:21 | 2.01471 | -72.77936 | 35928 ft | 461 kts | 194° |
| 2026-04-29 01:22 | 1.95308 | -72.79597 | 35933 ft | 461 kts | 194° |
| 2026-04-29 01:22 | 1.89114 | -72.81267 | 35932 ft | 461 kts | 194° |
| 2026-04-29 01:23 | 1.82908 | -72.82939 | 35931 ft | 461 kts | 194° |
| 2026-04-29 01:23 | 1.76708 | -72.84610 | 35935 ft | 461 kts | 194° |
| 2026-04-29 01:24 | 1.70504 | -72.86282 | 35931 ft | 461 kts | 194° |
| 2026-04-29 01:24 | 1.64302 | -72.87953 | 35939 ft | 462 kts | 194° |
| 2026-04-29 01:25 | 1.58130 | -72.89616 | 35940 ft | 462 kts | 194° |
| 2026-04-29 01:25 | 1.51928 | -72.91288 | 35943 ft | 462 kts | 194° |
| 2026-04-29 01:26 | 1.45678 | -72.92971 | 35939 ft | 462 kts | 194° |
| 2026-04-29 01:26 | 1.39506 | -72.94634 | 35943 ft | 462 kts | 194° |
| 2026-04-29 01:27 | 1.33287 | -72.96309 | 35943 ft | 463 kts | 194° |
| 2026-04-29 01:27 | 1.27055 | -72.97988 | 35945 ft | 463 kts | 194° |
| 2026-04-29 01:28 | 1.20831 | -72.99665 | 35943 ft | 464 kts | 194° |
| 2026-04-29 01:28 | 1.14597 | -73.01344 | 35943 ft | 464 kts | 194° |
| 2026-04-29 01:29 | 1.08404 | -73.03012 | 35935 ft | 464 kts | 194° |
| 2026-04-29 01:29 | 1.02170 | -73.04691 | 35939 ft | 464 kts | 194° |
| 2026-04-29 01:30 | 0.95934 | -73.06370 | 35941 ft | 463 kts | 194° |
| 2026-04-29 01:30 | 0.89712 | -73.08046 | 35948 ft | 464 kts | 194° |
| 2026-04-29 01:31 | 0.83474 | -73.09726 | 35942 ft | 464 kts | 194° |
| 2026-04-29 01:31 | 0.77235 | -73.11406 | 35948 ft | 464 kts | 194° |
| 2026-04-29 01:32 | 0.71010 | -73.13082 | 35944 ft | 464 kts | 194° |
| 2026-04-29 01:32 | 0.64777 | -73.14761 | 35950 ft | 463 kts | 194° |
| 2026-04-29 01:33 | 0.58552 | -73.16437 | 35946 ft | 463 kts | 194° |
| 2026-04-29 01:33 | 0.52325 | -73.18113 | 35947 ft | 463 kts | 194° |
| 2026-04-29 01:34 | 0.46105 | -73.19789 | 35950 ft | 463 kts | 194° |
| 2026-04-29 01:34 | 0.39879 | -73.21465 | 35944 ft | 463 kts | 194° |
| 2026-04-29 01:35 | 0.33690 | -73.23131 | 35944 ft | 463 kts | 194° |
| 2026-04-29 01:35 | 0.27465 | -73.24807 | 35947 ft | 463 kts | 194° |
| 2026-04-29 01:36 | 0.21244 | -73.26482 | 35944 ft | 462 kts | 194° |
| 2026-04-29 01:36 | 0.15027 | -73.28156 | 35945 ft | 462 kts | 194° |
| 2026-04-29 01:37 | 0.08818 | -73.29827 | 35941 ft | 462 kts | 194° |
| 2026-04-29 01:37 | 0.02615 | -73.31498 | 35949 ft | 462 kts | 194° |
| 2026-04-29 01:38 | -0.03549 | -73.33157 | 35946 ft | 462 kts | 194° |
| 2026-04-29 01:38 | -0.09757 | -73.34829 | 35946 ft | 462 kts | 194° |
| 2026-04-29 01:39 | -0.15955 | -73.36498 | 35948 ft | 461 kts | 194° |
| 2026-04-29 01:39 | -0.22159 | -73.38168 | 35945 ft | 461 kts | 194° |
| 2026-04-29 01:40 | -0.28364 | -73.39839 | 35948 ft | 461 kts | 194° |
| 2026-04-29 01:40 | -0.34568 | -73.41509 | 35943 ft | 461 kts | 194° |
| 2026-04-29 01:41 | -0.40730 | -73.43168 | 35950 ft | 462 kts | 194° |
| 2026-04-29 01:41 | -0.46933 | -73.44838 | 35942 ft | 462 kts | 194° |
| 2026-04-29 01:42 | -0.53131 | -73.46507 | 35945 ft | 462 kts | 194° |
| 2026-04-29 01:42 | -0.59347 | -73.48180 | 35947 ft | 462 kts | 194° |
| 2026-04-29 01:43 | -0.65541 | -73.49848 | 35947 ft | 463 kts | 194° |
| 2026-04-29 01:43 | -0.71757 | -73.51522 | 35947 ft | 463 kts | 194° |
| 2026-04-29 01:44 | -0.77986 | -73.53200 | 35945 ft | 463 kts | 194° |
| 2026-04-29 01:44 | -0.84210 | -73.54876 | 35942 ft | 463 kts | 194° |
| 2026-04-29 01:45 | -0.90428 | -73.56550 | 35943 ft | 463 kts | 194° |
| 2026-04-29 01:45 | -0.96664 | -73.58230 | 35946 ft | 463 kts | 194° |
| 2026-04-29 01:46 | -1.02846 | -73.59895 | 35945 ft | 463 kts | 194° |
| 2026-04-29 01:46 | -1.09075 | -73.61572 | 35944 ft | 463 kts | 194° |
| 2026-04-29 01:47 | -1.15265 | -73.63374 | 35946 ft | 463 kts | 197° |
| 2026-04-29 01:47 | -1.21425 | -73.65292 | 35947 ft | 463 kts | 197° |
| 2026-04-29 01:48 | -1.27579 | -73.67194 | 35944 ft | 463 kts | 197° |
| 2026-04-29 01:48 | -1.33752 | -73.69101 | 35941 ft | 463 kts | 197° |
| 2026-04-29 01:49 | -1.39905 | -73.71002 | 35945 ft | 463 kts | 197° |
| 2026-04-29 01:49 | -1.46062 | -73.72904 | 35942 ft | 463 kts | 197° |
| 2026-04-29 01:50 | -1.52180 | -73.74794 | 35943 ft | 463 kts | 197° |
| 2026-04-29 01:50 | -1.58327 | -73.76693 | 35948 ft | 463 kts | 197° |
| 2026-04-29 01:51 | -1.63455 | -73.78278 | 35949 ft | 463 kts | 197° |
| 2026-04-29 01:51 | -1.70661 | -73.80505 | 35944 ft | 463 kts | 197° |
| 2026-04-29 01:52 | -1.76783 | -73.82397 | 35947 ft | 463 kts | 197° |
| 2026-04-29 01:52 | -1.82943 | -73.84301 | 35948 ft | 463 kts | 197° |
| 2026-04-29 01:53 | -1.88108 | -73.85897 | 35947 ft | 464 kts | 197° |
| 2026-04-29 01:53 | -1.95271 | -73.88111 | 35948 ft | 464 kts | 197° |
| 2026-04-29 01:54 | -2.01454 | -73.90023 | 35949 ft | 464 kts | 197° |
| 2026-04-29 01:54 | -2.07623 | -73.91930 | 35953 ft | 464 kts | 197° |
| 2026-04-29 01:55 | -2.12763 | -73.93519 | 35948 ft | 464 kts | 197° |
| 2026-04-29 01:55 | -2.18939 | -73.95428 | 35953 ft | 464 kts | 197° |
| 2026-04-29 01:56 | -2.25110 | -73.97337 | 35952 ft | 464 kts | 197° |
| 2026-04-29 01:56 | -2.31249 | -73.99235 | 35951 ft | 464 kts | 197° |
| 2026-04-29 01:57 | -2.37457 | -74.01155 | 35948 ft | 464 kts | 197° |
| 2026-04-29 01:57 | -2.43596 | -74.03054 | 35954 ft | 465 kts | 197° |
| 2026-04-29 01:58 | -2.49784 | -74.04968 | 35953 ft | 465 kts | 197° |
| 2026-04-29 01:58 | -2.55955 | -74.06877 | 35946 ft | 465 kts | 197° |
| 2026-04-29 01:59 | -2.62141 | -74.08791 | 35950 ft | 465 kts | 197° |
| 2026-04-29 01:59 | -2.68313 | -74.10701 | 35951 ft | 465 kts | 197° |
| 2026-04-29 02:00 | -2.74497 | -74.12615 | 35954 ft | 465 kts | 197° |
| 2026-04-29 02:00 | -2.80682 | -74.14529 | 35951 ft | 465 kts | 197° |
| 2026-04-29 02:01 | -2.86858 | -74.16441 | 35954 ft | 465 kts | 197° |
| 2026-04-29 02:01 | -2.93015 | -74.18347 | 35957 ft | 466 kts | 197° |
| 2026-04-29 02:02 | -2.99204 | -74.20263 | 35956 ft | 466 kts | 197° |
| 2026-04-29 02:02 | -3.05411 | -74.22185 | 35957 ft | 466 kts | 197° |
| 2026-04-29 02:03 | -3.06549 | -74.22537 | 35956 ft | 465 kts | 197° |
| 2026-04-29 02:31 | -3.09218 | -74.23364 | 35958 ft | 464 kts | 197° |
| 2026-04-29 02:31 | -3.15380 | -74.25272 | 35957 ft | 463 kts | 197° |
| 2026-04-29 02:32 | -3.21542 | -74.27181 | 35956 ft | 463 kts | 197° |
| 2026-04-29 02:32 | -3.27660 | -74.29076 | 35954 ft | 463 kts | 197° |
| 2026-04-29 02:33 | -3.33820 | -74.30985 | 35956 ft | 462 kts | 197° |
| 2026-04-29 02:33 | -3.39970 | -74.32890 | 35951 ft | 462 kts | 197° |
| 2026-04-29 02:34 | -3.46118 | -74.34795 | 35953 ft | 462 kts | 197° |
| 2026-04-29 02:34 | -3.52255 | -74.36698 | 35955 ft | 462 kts | 197° |
| 2026-04-29 02:35 | -3.58401 | -74.38603 | 35954 ft | 462 kts | 197° |
| 2026-04-29 02:35 | -3.64540 | -74.40506 | 35952 ft | 462 kts | 197° |
| 2026-04-29 02:36 | -3.70636 | -74.42396 | 35952 ft | 461 kts | 197° |
| 2026-04-29 02:36 | -3.76770 | -74.44299 | 35951 ft | 462 kts | 197° |
| 2026-04-29 02:37 | -3.82923 | -74.46207 | 35953 ft | 462 kts | 197° |
| 2026-04-29 02:37 | -3.89071 | -74.48114 | 35950 ft | 462 kts | 197° |
| 2026-04-29 02:38 | -3.95225 | -74.50023 | 35954 ft | 463 kts | 197° |
| 2026-04-29 02:38 | -4.01330 | -74.51918 | 35953 ft | 463 kts | 197° |
| 2026-04-29 02:39 | -4.07492 | -74.53830 | 35953 ft | 463 kts | 197° |
| 2026-04-29 02:39 | -4.13666 | -74.55747 | 35952 ft | 463 kts | 197° |
| 2026-04-29 02:40 | -4.19829 | -74.57660 | 35953 ft | 463 kts | 197° |
| 2026-04-29 02:40 | -4.25970 | -74.59567 | 35951 ft | 464 kts | 197° |
| 2026-04-29 02:41 | -4.32133 | -74.61481 | 35952 ft | 464 kts | 197° |
| 2026-04-29 02:41 | -4.37310 | -74.63089 | 35953 ft | 464 kts | 197° |
| 2026-04-29 02:42 | -4.43435 | -74.64992 | 35953 ft | 464 kts | 197° |
| 2026-04-29 02:42 | -4.49604 | -74.66909 | 35953 ft | 464 kts | 197° |
| 2026-04-29 02:43 | -4.55776 | -74.68827 | 35950 ft | 464 kts | 197° |
| 2026-04-29 02:43 | -4.61946 | -74.70744 | 35952 ft | 464 kts | 197° |
| 2026-04-29 02:44 | -4.68115 | -74.72662 | 35952 ft | 464 kts | 197° |
| 2026-04-29 02:44 | -4.74277 | -74.74578 | 35950 ft | 464 kts | 197° |
| 2026-04-29 02:45 | -4.80440 | -74.76495 | 35949 ft | 463 kts | 197° |
| 2026-04-29 02:45 | -4.86603 | -74.78412 | 35952 ft | 463 kts | 197° |
| 2026-04-29 02:46 | -4.92736 | -74.80320 | 35948 ft | 464 kts | 197° |
| 2026-04-29 02:46 | -4.98898 | -74.82237 | 35951 ft | 464 kts | 197° |
| 2026-04-29 02:47 | -5.05068 | -74.84158 | 35949 ft | 464 kts | 197° |
| 2026-04-29 02:47 | -5.11246 | -74.86081 | 35948 ft | 464 kts | 197° |
| 2026-04-29 02:48 | -5.17415 | -74.88002 | 35947 ft | 464 kts | 197° |
| 2026-04-29 02:48 | -5.23596 | -74.89927 | 35950 ft | 465 kts | 197° |
| 2026-04-29 02:49 | -5.29739 | -74.91840 | 35951 ft | 465 kts | 197° |
| 2026-04-29 02:49 | -5.35929 | -74.93769 | 35950 ft | 465 kts | 197° |
| 2026-04-29 02:50 | -5.42121 | -74.95698 | 35949 ft | 465 kts | 197° |
| 2026-04-29 02:50 | -5.48391 | -74.97159 | 35578 ft | 462 kts | 180° |
| 2026-04-29 02:50 | -5.51613 | -74.97201 | 35152 ft | 463 kts | 182° |
| 2026-04-29 02:51 | -5.54758 | -74.97736 | 34743 ft | 465 kts | 198° |
| 2026-04-29 02:51 | -5.57657 | -74.99110 | 34605 ft | 458 kts | 212° |
| 2026-04-29 02:51 | -5.60378 | -75.00729 | 34570 ft | 449 kts | 204° |
| 2026-04-29 02:52 | -5.66096 | -75.02984 | 34495 ft | 433 kts | 198° |
| 2026-04-29 02:52 | -5.71721 | -75.04880 | 34295 ft | 422 kts | 197° |
| 2026-04-29 02:52 | -5.74501 | -75.05773 | 34114 ft | 419 kts | 196° |
| 2026-04-29 02:53 | -5.77278 | -75.06651 | 33935 ft | 417 kts | 196° |
| 2026-04-29 02:53 | -5.80050 | -75.07520 | 33728 ft | 416 kts | 196° |
| 2026-04-29 02:53 | -5.82800 | -75.08379 | 33524 ft | 414 kts | 196° |
| 2026-04-29 02:53 | -5.85560 | -75.09233 | 33282 ft | 413 kts | 194° |
| 2026-04-29 02:54 | -5.88327 | -75.09951 | 32781 ft | 417 kts | 195° |
| 2026-04-29 02:54 | -5.91101 | -75.10874 | 32312 ft | 425 kts | 197° |
| 2026-04-29 02:54 | -5.93954 | -75.11818 | 32175 ft | 437 kts | 197° |
| 2026-04-29 02:55 | -5.99867 | -75.13708 | 32183 ft | 454 kts | 197° |
| 2026-04-29 02:55 | -6.02887 | -75.14655 | 32534 ft | 454 kts | 197° |
| 2026-04-29 02:55 | -6.05907 | -75.15600 | 32817 ft | 455 kts | 196° |
| 2026-04-29 02:55 | -6.08949 | -75.16550 | 33046 ft | 458 kts | 197° |
| 2026-04-29 02:56 | -6.11978 | -75.17497 | 33317 ft | 459 kts | 196° |
| 2026-04-29 02:56 | -6.15047 | -75.18456 | 33600 ft | 461 kts | 197° |
| 2026-04-29 02:56 | -6.18117 | -75.19415 | 33867 ft | 462 kts | 197° |
| 2026-04-29 02:56 | -6.21198 | -75.20378 | 34110 ft | 464 kts | 197° |
| 2026-04-29 02:57 | -6.24238 | -75.21328 | 34343 ft | 465 kts | 197° |
| 2026-04-29 02:57 | -6.27372 | -75.22308 | 34580 ft | 466 kts | 197° |
| 2026-04-29 02:57 | -6.30431 | -75.23265 | 34814 ft | 467 kts | 197° |
| 2026-04-29 02:57 | -6.33542 | -75.24237 | 35038 ft | 468 kts | 197° |
| 2026-04-29 02:58 | -6.36653 | -75.25211 | 35268 ft | 469 kts | 197° |
| 2026-04-29 02:58 | -6.39776 | -75.26187 | 35518 ft | 469 kts | 197° |
| 2026-04-29 02:58 | -6.42899 | -75.27165 | 35763 ft | 470 kts | 197° |
| 2026-04-29 02:58 | -6.46023 | -75.28142 | 35933 ft | 470 kts | 197° |
| 2026-04-29 02:59 | -6.49156 | -75.29122 | 35951 ft | 470 kts | 197° |
| 2026-04-29 02:59 | -6.55354 | -75.31062 | 35954 ft | 470 kts | 197° |
| 2026-04-29 03:00 | -6.61596 | -75.33016 | 35958 ft | 470 kts | 197° |
| 2026-04-29 03:00 | -6.67846 | -75.34973 | 35960 ft | 470 kts | 197° |
| 2026-04-29 03:01 | -6.74089 | -75.36928 | 37542 ft | 467 kts | 197° |
| 2026-04-29 03:01 | -6.77155 | -75.37889 | 37401 ft | 457 kts | 197° |
| 2026-04-29 03:01 | -6.80163 | -75.38831 | 37164 ft | 451 kts | 197° |
| 2026-04-29 03:01 | -6.83170 | -75.39773 | 36905 ft | 450 kts | 197° |
| 2026-04-29 03:02 | -6.86157 | -75.40710 | 36681 ft | 449 kts | 197° |
| 2026-04-29 03:02 | -6.89140 | -75.41644 | 36428 ft | 448 kts | 197° |
| 2026-04-29 03:02 | -6.92113 | -75.42576 | 36180 ft | 447 kts | 197° |
| 2026-04-29 03:02 | -6.95048 | -75.43497 | 36017 ft | 446 kts | 197° |
| 2026-04-29 03:03 | -6.98006 | -75.44424 | 36005 ft | 447 kts | 197° |
| 2026-04-29 03:03 | -7.03941 | -75.46286 | 36003 ft | 447 kts | 197° |
| 2026-04-29 03:04 | -7.09893 | -75.48153 | 36000 ft | 447 kts | 197° |
| 2026-04-29 03:04 | -7.15844 | -75.50020 | 36004 ft | 447 kts | 197° |
| 2026-04-29 03:05 | -7.21795 | -75.51888 | 36001 ft | 447 kts | 197° |
| 2026-04-29 03:05 | -7.27743 | -75.53755 | 35998 ft | 447 kts | 197° |
| 2026-04-29 03:06 | -7.33640 | -75.55607 | 35998 ft | 447 kts | 197° |
| 2026-04-29 03:06 | -7.39590 | -75.57480 | 36002 ft | 447 kts | 199° |
| 2026-04-29 03:06 | -7.42415 | -75.58762 | 36004 ft | 445 kts | 210° |
| 2026-04-29 03:07 | -7.45134 | -75.60270 | 35987 ft | 447 kts | 208° |
| 2026-04-29 03:07 | -7.50608 | -75.63255 | 36001 ft | 447 kts | 208° |
| 2026-04-29 03:08 | -7.56084 | -75.66258 | 36002 ft | 447 kts | 208° |
| 2026-04-29 03:08 | -7.61552 | -75.69258 | 36000 ft | 447 kts | 208° |
| 2026-04-29 03:09 | -7.66980 | -75.72236 | 35999 ft | 447 kts | 208° |
| 2026-04-29 03:09 | -7.72445 | -75.75237 | 35998 ft | 447 kts | 208° |
| 2026-04-29 03:10 | -7.77908 | -75.78237 | 36003 ft | 447 kts | 208° |
| 2026-04-29 03:10 | -7.83369 | -75.81237 | 35999 ft | 447 kts | 208° |
| 2026-04-29 03:11 | -7.88828 | -75.84237 | 36004 ft | 447 kts | 208° |
| 2026-04-29 03:11 | -7.94293 | -75.87240 | 36002 ft | 447 kts | 208° |
| 2026-04-29 03:12 | -7.99763 | -75.90248 | 36002 ft | 447 kts | 208° |
| 2026-04-29 03:12 | -8.05225 | -75.93252 | 35999 ft | 447 kts | 208° |
| 2026-04-29 03:13 | -8.10650 | -75.96237 | 35999 ft | 447 kts | 208° |
| 2026-04-29 03:13 | -8.16116 | -75.99245 | 35995 ft | 447 kts | 208° |
| 2026-04-29 03:14 | -8.21557 | -76.02241 | 35997 ft | 447 kts | 208° |
| 2026-04-29 03:14 | -8.27022 | -76.05250 | 36002 ft | 447 kts | 208° |
| 2026-04-29 03:15 | -8.32497 | -76.08266 | 35997 ft | 447 kts | 208° |
| 2026-04-29 03:15 | -8.37930 | -76.11260 | 36001 ft | 447 kts | 208° |
| 2026-04-29 03:16 | -8.43392 | -76.14271 | 35999 ft | 447 kts | 208° |
| 2026-04-29 03:16 | -8.48849 | -76.17280 | 36002 ft | 447 kts | 208° |
| 2026-04-29 03:17 | -8.54311 | -76.20293 | 36002 ft | 447 kts | 208° |
| 2026-04-29 03:17 | -8.59741 | -76.23289 | 36003 ft | 447 kts | 208° |
| 2026-04-29 03:18 | -8.65190 | -76.26296 | 36005 ft | 447 kts | 208° |
| 2026-04-29 03:18 | -8.70654 | -76.29313 | 35997 ft | 447 kts | 208° |
| 2026-04-29 03:19 | -8.76106 | -76.32324 | 36001 ft | 446 kts | 208° |
| 2026-04-29 03:19 | -8.81556 | -76.35336 | 35999 ft | 447 kts | 208° |
| 2026-04-29 03:20 | -8.86980 | -76.38333 | 35999 ft | 447 kts | 208° |
| 2026-04-29 03:20 | -8.92433 | -76.41349 | 36000 ft | 447 kts | 208° |
| 2026-04-29 03:21 | -8.97883 | -76.44362 | 36000 ft | 447 kts | 208° |
| 2026-04-29 03:21 | -9.03338 | -76.47380 | 36000 ft | 447 kts | 208° |
| 2026-04-29 03:22 | -9.08792 | -76.50399 | 35995 ft | 446 kts | 208° |
| 2026-04-29 03:22 | -9.14245 | -76.53418 | 36001 ft | 446 kts | 208° |
| 2026-04-29 03:23 | -9.19696 | -76.56436 | 36006 ft | 446 kts | 208° |
| 2026-04-29 03:23 | -9.25118 | -76.59440 | 36003 ft | 446 kts | 209° |
| 2026-04-29 03:24 | -9.30571 | -76.62462 | 36000 ft | 446 kts | 209° |
| 2026-04-29 03:24 | -9.36025 | -76.65487 | 36003 ft | 446 kts | 209° |
| 2026-04-29 03:25 | -9.41476 | -76.68511 | 35997 ft | 446 kts | 208° |
| 2026-04-29 03:25 | -9.46930 | -76.71537 | 36002 ft | 446 kts | 209° |
| 2026-04-29 03:26 | -9.52374 | -76.74558 | 35999 ft | 446 kts | 209° |
| 2026-04-29 03:26 | -9.57818 | -76.77581 | 36000 ft | 446 kts | 209° |
| 2026-04-29 03:27 | -9.62346 | -76.80096 | 36000 ft | 446 kts | 209° |
| 2026-04-29 03:27 | -9.68680 | -76.83616 | 36001 ft | 446 kts | 209° |
| 2026-04-29 03:28 | -9.74121 | -76.86641 | 35998 ft | 446 kts | 209° |
| 2026-04-29 03:28 | -9.79443 | -76.89601 | 35782 ft | 435 kts | 209° |
| 2026-04-29 03:30 | -9.79673 | -76.89728 | 35739 ft | 435 kts | 209° |
| 2026-04-29 03:30 | -9.82396 | -76.91243 | 34792 ft | 461 kts | 209° |
| 2026-04-29 03:30 | -9.85272 | -76.92842 | 33983 ft | 471 kts | 209° |
| 2026-04-29 03:30 | -9.88089 | -76.94410 | 33495 ft | 465 kts | 209° |
| 2026-04-29 03:31 | -9.93738 | -76.97555 | 32244 ft | 461 kts | 209° |
| 2026-04-29 03:31 | -9.96541 | -76.99116 | 31685 ft | 457 kts | 209° |
| 2026-04-29 03:31 | -9.99310 | -77.00658 | 31179 ft | 452 kts | 209° |
| 2026-04-29 03:32 | -10.02056 | -77.02188 | 30669 ft | 448 kts | 209° |
| 2026-04-29 03:32 | -10.04782 | -77.03706 | 30149 ft | 444 kts | 209° |
| 2026-04-29 03:32 | -10.07472 | -77.05205 | 29637 ft | 439 kts | 209° |
| 2026-04-29 03:32 | -10.10137 | -77.06690 | 29130 ft | 435 kts | 209° |
| 2026-04-29 03:33 | -10.12775 | -77.08161 | 28629 ft | 431 kts | 209° |
| 2026-04-29 03:33 | -10.15368 | -77.09607 | 28134 ft | 427 kts | 209° |
| 2026-04-29 03:33 | -10.17960 | -77.11052 | 27657 ft | 423 kts | 209° |
| 2026-04-29 03:33 | -10.20530 | -77.12486 | 27156 ft | 419 kts | 209° |
| 2026-04-29 03:34 | -10.23075 | -77.13906 | 26669 ft | 414 kts | 209° |
| 2026-04-29 03:34 | -10.25591 | -77.15310 | 26199 ft | 410 kts | 209° |
| 2026-04-29 03:34 | -10.28084 | -77.16701 | 25727 ft | 406 kts | 209° |
| 2026-04-29 03:34 | -10.30552 | -77.18079 | 25260 ft | 402 kts | 209° |
| 2026-04-29 03:35 | -10.32999 | -77.19444 | 24799 ft | 398 kts | 209° |
| 2026-04-29 03:35 | -10.35408 | -77.20790 | 24345 ft | 394 kts | 209° |
| 2026-04-29 03:35 | -10.37765 | -77.22106 | 23899 ft | 391 kts | 209° |
| 2026-04-29 03:35 | -10.40175 | -77.23452 | 23451 ft | 387 kts | 209° |
| 2026-04-29 03:36 | -10.42521 | -77.24763 | 22998 ft | 383 kts | 209° |
| 2026-04-29 03:36 | -10.44818 | -77.26046 | 22563 ft | 379 kts | 209° |
| 2026-04-29 03:36 | -10.47121 | -77.27333 | 22131 ft | 376 kts | 209° |
| 2026-04-29 03:36 | -10.49407 | -77.28611 | 21685 ft | 373 kts | 208° |
| 2026-04-29 03:37 | -10.51804 | -77.29586 | 21183 ft | 371 kts | 191° |
| 2026-04-29 03:37 | -10.54365 | -77.29739 | 20780 ft | 367 kts | 180° |
| 2026-04-29 03:37 | -10.56898 | -77.29793 | 20377 ft | 363 kts | 181° |
| 2026-04-29 03:37 | -10.59418 | -77.29850 | 19965 ft | 360 kts | 181° |
| 2026-04-29 03:38 | -10.61912 | -77.29900 | 19547 ft | 357 kts | 181° |
| 2026-04-29 03:38 | -10.64390 | -77.29945 | 19129 ft | 354 kts | 181° |
| 2026-04-29 03:38 | -10.66839 | -77.29988 | 18718 ft | 351 kts | 181° |
| 2026-04-29 03:38 | -10.69273 | -77.30031 | 18307 ft | 348 kts | 181° |
| 2026-04-29 03:39 | -10.71683 | -77.30073 | 17891 ft | 345 kts | 181° |
| 2026-04-29 03:39 | -10.74084 | -77.30114 | 17437 ft | 344 kts | 181° |
| 2026-04-29 03:39 | -10.76439 | -77.30155 | 17038 ft | 341 kts | 181° |
| 2026-04-29 03:39 | -10.78831 | -77.30196 | 16620 ft | 338 kts | 181° |
| 2026-04-29 03:40 | -10.81171 | -77.30237 | 16205 ft | 335 kts | 181° |
| 2026-04-29 03:40 | -10.83469 | -77.30276 | 15794 ft | 333 kts | 181° |
| 2026-04-29 03:40 | -10.85782 | -77.30317 | 15380 ft | 331 kts | 181° |
| 2026-04-29 03:40 | -10.88068 | -77.30356 | 14993 ft | 327 kts | 181° |
| 2026-04-29 03:41 | -10.90350 | -77.30398 | 14561 ft | 325 kts | 181° |
| 2026-04-29 03:41 | -10.92603 | -77.30439 | 14220 ft | 321 kts | 181° |
| 2026-04-29 03:41 | -10.94817 | -77.30479 | 13870 ft | 317 kts | 181° |
| 2026-04-29 03:41 | -10.97021 | -77.30519 | 13512 ft | 313 kts | 181° |
| 2026-04-29 03:42 | -10.99194 | -77.30559 | 13159 ft | 310 kts | 181° |
| 2026-04-29 03:42 | -11.01334 | -77.30597 | 12809 ft | 307 kts | 181° |
| 2026-04-29 03:42 | -11.03463 | -77.30636 | 12458 ft | 303 kts | 181° |
| 2026-04-29 03:42 | -11.05532 | -77.30674 | 12122 ft | 300 kts | 181° |
| 2026-04-29 03:43 | -11.05555 | -77.30674 | 12119 ft | 300 kts | 181° |
| 2026-04-29 03:43 | -11.06155 | -77.30685 | 12018 ft | 299 kts | 181° |
| 2026-04-29 03:43 | -11.08353 | -77.30725 | 11612 ft | 323 kts | 181° |
| 2026-04-29 03:43 | -11.10582 | -77.30766 | 11269 ft | 319 kts | 181° |
| 2026-04-29 03:44 | -11.12790 | -77.30805 | 10972 ft | 313 kts | 181° |
| 2026-04-29 03:44 | -11.14961 | -77.30843 | 10592 ft | 310 kts | 181° |
| 2026-04-29 03:44 | -11.17099 | -77.30880 | 10244 ft | 305 kts | 181° |
| 2026-04-29 03:44 | -11.19207 | -77.30917 | 9918 ft | 300 kts | 181° |
| 2026-04-29 03:45 | -11.21289 | -77.30953 | 9607 ft | 295 kts | 181° |
| 2026-04-29 03:45 | -11.23326 | -77.30988 | 9296 ft | 291 kts | 181° |
| 2026-04-29 03:45 | -11.25332 | -77.31023 | 8981 ft | 287 kts | 181° |
| 2026-04-29 03:45 | -11.27324 | -77.31058 | 8663 ft | 283 kts | 181° |
| 2026-04-29 03:46 | -11.29254 | -77.31091 | 8354 ft | 279 kts | 181° |
| 2026-04-29 03:46 | -11.31205 | -77.31125 | 8044 ft | 275 kts | 181° |
| 2026-04-29 03:46 | -11.33087 | -77.31158 | 7741 ft | 272 kts | 181° |
| 2026-04-29 03:46 | -11.34967 | -77.31191 | 7449 ft | 269 kts | 181° |
| 2026-04-29 03:47 | -11.36820 | -77.31223 | 7145 ft | 265 kts | 181° |
| 2026-04-29 03:47 | -11.38654 | -77.31254 | 6930 ft | 262 kts | 181° |
| 2026-04-29 03:47 | -11.40486 | -77.31285 | 6676 ft | 265 kts | 181° |
| 2026-04-29 03:47 | -11.42332 | -77.31316 | 6447 ft | 265 kts | 181° |
| 2026-04-29 03:48 | -11.44172 | -77.31347 | 6232 ft | 264 kts | 181° |
| 2026-04-29 03:48 | -11.46010 | -77.31379 | 6003 ft | 264 kts | 181° |
| 2026-04-29 03:48 | -11.47845 | -77.31410 | 5777 ft | 263 kts | 181° |
| 2026-04-29 03:48 | -11.49671 | -77.31441 | 5554 ft | 262 kts | 181° |
| 2026-04-29 03:49 | -11.51470 | -77.31471 | 5338 ft | 261 kts | 181° |
| 2026-04-29 03:49 | -11.53277 | -77.31501 | 5113 ft | 260 kts | 181° |
| 2026-04-29 03:49 | -11.55091 | -77.31532 | 4886 ft | 259 kts | 181° |
| 2026-04-29 03:49 | -11.56877 | -77.31563 | 4670 ft | 254 kts | 181° |
| 2026-04-29 03:50 | -11.58624 | -77.31592 | 4459 ft | 247 kts | 181° |
| 2026-04-29 03:50 | -11.60322 | -77.31621 | 4251 ft | 241 kts | 181° |
| 2026-04-29 03:50 | -11.61981 | -77.31643 | 4101 ft | 232 kts | 178° |
| 2026-04-29 03:50 | -11.63509 | -77.31254 | 3924 ft | 225 kts | 156° |
| 2026-04-29 03:51 | -11.64901 | -77.30626 | 3760 ft | 218 kts | 156° |
| 2026-04-29 03:51 | -11.66286 | -77.29995 | 3603 ft | 219 kts | 156° |
| 2026-04-29 03:51 | -11.67675 | -77.29354 | 3455 ft | 220 kts | 156° |
| 2026-04-29 03:51 | -11.69069 | -77.28706 | 3303 ft | 220 kts | 156° |
| 2026-04-29 03:52 | -11.70265 | -77.28146 | 3177 ft | 219 kts | 156° |
| 2026-04-29 03:52 | -11.71653 | -77.27494 | 3026 ft | 219 kts | 156° |
| 2026-04-29 03:52 | -11.73037 | -77.26843 | 2875 ft | 218 kts | 156° |
| 2026-04-29 03:52 | -11.74419 | -77.26192 | 2731 ft | 218 kts | 156° |
| 2026-04-29 03:53 | -11.75776 | -77.25551 | 2581 ft | 217 kts | 156° |
| 2026-04-29 03:53 | -11.77144 | -77.24905 | 2433 ft | 217 kts | 156° |
| 2026-04-29 03:53 | -11.78510 | -77.24260 | 2315 ft | 213 kts | 156° |
| 2026-04-29 03:53 | -11.79820 | -77.23641 | 2222 ft | 202 kts | 155° |
| 2026-04-29 03:54 | -11.81042 | -77.23042 | 2204 ft | 190 kts | 155° |
| 2026-04-29 03:54 | -11.82236 | -77.22452 | 2163 ft | 192 kts | 155° |
| 2026-04-29 03:54 | -11.83472 | -77.21843 | 2158 ft | 214 kts | 155° |
| 2026-04-29 03:54 | -11.84841 | -77.21168 | 2096 ft | 212 kts | 155° |
| 2026-04-29 03:55 | -11.86101 | -77.20551 | 2128 ft | 191 kts | 155° |
| 2026-04-29 03:55 | -11.87310 | -77.19967 | 2051 ft | 193 kts | 155° |
| 2026-04-29 03:55 | -11.88492 | -77.19386 | 1812 ft | 183 kts | 155° |
| 2026-04-29 03:55 | -11.89611 | -77.18835 | 1726 ft | 176 kts | 155° |
| 2026-04-29 03:56 | -11.90697 | -77.18298 | 1723 ft | 176 kts | 155° |
| 2026-04-29 03:56 | -11.91798 | -77.17755 | 1729 ft | 176 kts | 155° |
| 2026-04-29 03:56 | -11.92899 | -77.17211 | 1732 ft | 175 kts | 155° |
| 2026-04-29 03:56 | -11.93947 | -77.16693 | 1581 ft | 157 kts | 155° |
| 2026-04-29 03:57 | -11.94905 | -77.16220 | 1402 ft | 151 kts | 155° |
| 2026-04-29 03:57 | -11.95901 | -77.15728 | 1189 ft | 161 kts | 155° |
| 2026-04-29 03:57 | -11.96890 | -77.15239 | 992 ft | 154 kts | 155° |
| 2026-04-29 03:57 | -11.97844 | -77.14766 | 783 ft | 149 kts | 155° |
| 2026-04-29 03:58 | -11.98762 | -77.14309 | 593 ft | 146 kts | 156° |
| 2026-04-29 03:58 | -11.99671 | -77.13865 | 395 ft | 146 kts | 155° |
| 2026-04-29 03:58 | -12.00585 | -77.13419 | 209 ft | 145 kts | 155° |
| 2026-04-29 03:58 | -12.01475 | -77.12977 | 53 ft | 140 kts | 155° |
| 2026-04-29 03:59 | -12.02271 | -77.12585 | 48 ft | 111 kts | 154° |
| 2026-04-29 03:59 | -12.02835 | -77.12306 | 56 ft | 68 kts | 154° |
| 2026-04-29 03:59 | -12.03158 | -77.12147 | 67 ft | 46 kts | 154° |
| 2026-04-29 03:59 | -12.03400 | -77.12028 | 74 ft | 37 kts | 154° |
| 2026-04-29 04:00 | -12.03477 | -77.11945 | 73 ft | 15 kts | 78° |
| 2026-04-29 04:00 | -12.03436 | -77.11865 | 67 ft | 10 kts | 39° |
| 2026-04-29 04:00 | -12.03370 | -77.11869 | 73 ft | 11 kts | 334° |
| 2026-04-29 04:00 | -12.03293 | -77.11905 | 72 ft | 13 kts | 335° |
| 2026-04-29 04:01 | -12.03208 | -77.11946 | 70 ft | 13 kts | 337° |
| 2026-04-29 04:01 | -12.03155 | -77.11918 | 67 ft | 5 kts | 54° |
| 2026-04-29 04:01 | -12.03147 | -77.11906 | 72 ft | 0 kts | 56° |
| 2026-04-29 04:02 | -12.03144 | -77.11902 | 78 ft | 2 kts | 59° |
| 2026-04-29 04:02 | -12.03137 | -77.11887 | 82 ft | 2 kts | 65° |
| 2026-04-29 04:02 | -12.03136 | -77.11885 | 82 ft | 0 kts | 64° |
| 2026-04-29 04:03 | -12.03130 | -77.11873 | 84 ft | 4 kts | 64° |
| 2026-04-29 04:03 | -12.03121 | -77.11852 | 83 ft | 0 kts | 64° |